sensor_id;sensor_type;location;lat;lon;timestamp;pressure;altitude;pressure_sealevel;temperature;humidity
81125;BME280;71444;52.114;5.424;2023-07-28T00:00:47;100557.97;;;17.50;99.72
81125;BME280;71444;52.114;5.424;2023-07-28T00:03:35;100570.59;;;17.51;99.68
81125;BME280;71444;52.114;5.424;2023-07-28T00:06:25;100558.59;;;17.52;99.75
81125;BME280;71444;52.114;5.424;2023-07-28T00:09:13;100564.91;;;17.53;99.30
81125;BME280;71444;52.114;5.424;2023-07-28T00:12:02;100568.25;;;17.55;99.33
81125;BME280;71444;52.114;5.424;2023-07-28T00:14:48;100559.22;;;17.54;99.01
81125;BME280;71444;52.114;5.424;2023-07-28T00:17:36;100563.19;;;17.58;99.58
81125;BME280;71444;52.114;5.424;2023-07-28T00:20:24;100552.25;;;17.58;99.35
81125;BME280;71444;52.114;5.424;2023-07-28T00:23:14;100555.81;;;17.59;98.99
81125;BME280;71444;52.114;5.424;2023-07-28T00:26:02;100554.38;;;17.56;99.20
81125;BME280;71444;52.114;5.424;2023-07-28T00:28:50;100550.59;;;17.57;99.02
81125;BME280;71444;52.114;5.424;2023-07-28T00:31:30;100551.44;;;17.58;99.22
81125;BME280;71444;52.114;5.424;2023-07-28T00:34:18;100551.19;;;17.59;98.99
81125;BME280;71444;52.114;5.424;2023-07-28T00:37:07;100545.75;;;17.59;98.91
81125;BME280;71444;52.114;5.424;2023-07-28T00:39:55;100549.31;;;17.60;99.26
81125;BME280;71444;52.114;5.424;2023-07-28T00:42:34;100553.09;;;17.59;98.62
81125;BME280;71444;52.114;5.424;2023-07-28T00:45:20;100554.16;;;17.58;98.93
81125;BME280;71444;52.114;5.424;2023-07-28T00:48:11;100547.63;;;17.59;98.38
81125;BME280;71444;52.114;5.424;2023-07-28T00:51:01;100542.41;;;17.57;98.75
81125;BME280;71444;52.114;5.424;2023-07-28T00:53:50;100543.22;;;17.58;98.80
81125;BME280;71444;52.114;5.424;2023-07-28T00:56:42;100541.34;;;17.58;98.71
81125;BME280;71444;52.114;5.424;2023-07-28T00:59:31;100541.56;;;17.57;99.00
81125;BME280;71444;52.114;5.424;2023-07-28T01:02:20;100546.19;;;17.56;99.02
81125;BME280;71444;52.114;5.424;2023-07-28T01:05:09;100551.66;;;17.56;98.09
81125;BME280;71444;52.114;5.424;2023-07-28T01:08:34;100551.19;;;17.59;98.30
81125;BME280;71444;52.114;5.424;2023-07-28T01:11:57;100553.31;;;17.57;98.13
81125;BME280;71444;52.114;5.424;2023-07-28T01:14:46;100557.09;;;17.56;98.08
81125;BME280;71444;52.114;5.424;2023-07-28T01:17:26;100559.84;;;17.56;98.50
81125;BME280;71444;52.114;5.424;2023-07-28T01:20:14;100555.44;;;17.55;97.88
81125;BME280;71444;52.114;5.424;2023-07-28T01:23:14;100561.72;;;17.56;98.40
81125;BME280;71444;52.114;5.424;2023-07-28T01:26:09;100564.47;;;17.56;98.09
81125;BME280;71444;52.114;5.424;2023-07-28T01:29:00;100561.72;;;17.56;98.30
81125;BME280;71444;52.114;5.424;2023-07-28T01:31:48;100557.34;;;17.55;97.86
81125;BME280;71444;52.114;5.424;2023-07-28T01:34:29;100566.13;;;17.57;98.86
81125;BME280;71444;52.114;5.424;2023-07-28T01:37:18;100571.81;;;17.55;98.01
81125;BME280;71444;52.114;5.424;2023-07-28T01:40:07;100568.03;;;17.56;98.85
81125;BME280;71444;52.114;5.424;2023-07-28T01:42:47;100570.75;;;17.56;98.49
81125;BME280;71444;52.114;5.424;2023-07-28T01:45:35;100575.16;;;17.57;99.22
81125;BME280;71444;52.114;5.424;2023-07-28T01:48:15;100569.94;;;17.56;98.69
81125;BME280;71444;52.114;5.424;2023-07-28T01:51:03;100570.97;;;17.55;99.36
81125;BME280;71444;52.114;5.424;2023-07-28T01:53:46;100567.41;;;17.54;99.00
81125;BME280;71444;52.114;5.424;2023-07-28T01:56:29;100568.25;;;17.55;98.99
81125;BME280;71444;52.114;5.424;2023-07-28T01:59:09;100562.78;;;17.55;98.98
81125;BME280;71444;52.114;5.424;2023-07-28T02:01:49;100565.53;;;17.55;99.14
81125;BME280;71444;52.114;5.424;2023-07-28T02:04:39;100557.34;;;17.55;99.21
81125;BME280;71444;52.114;5.424;2023-07-28T02:07:27;100565.13;;;17.51;99.31
81125;BME280;71444;52.114;5.424;2023-07-28T02:10:19;100568.03;;;17.49;99.61
81125;BME280;71444;52.114;5.424;2023-07-28T02:13:01;100570.38;;;17.46;99.12
81125;BME280;71444;52.114;5.424;2023-07-28T02:15:43;100571.66;;;17.43;99.36
81125;BME280;71444;52.114;5.424;2023-07-28T02:18:24;100576.28;;;17.43;99.34
81125;BME280;71444;52.114;5.424;2023-07-28T02:21:04;100567.47;;;17.41;99.54
81125;BME280;71444;52.114;5.424;2023-07-28T02:23:53;100565.78;;;17.40;99.85
81125;BME280;71444;52.114;5.424;2023-07-28T02:26:39;100567.66;;;17.39;99.81
81125;BME280;71444;52.114;5.424;2023-07-28T02:29:20;100570.41;;;17.39;100.00
81125;BME280;71444;52.114;5.424;2023-07-28T02:32:02;100563.25;;;17.38;99.86
81125;BME280;71444;52.114;5.424;2023-07-28T02:34:44;100566.84;;;17.39;100.00
81125;BME280;71444;52.114;5.424;2023-07-28T02:37:25;100563.25;;;17.38;100.00
81125;BME280;71444;52.114;5.424;2023-07-28T02:40:05;100559.69;;;17.38;99.89
81125;BME280;71444;52.114;5.424;2023-07-28T02:42:46;100564.09;;;17.39;99.98
81125;BME280;71444;52.114;5.424;2023-07-28T02:45:25;100563.91;;;17.40;99.99
81125;BME280;71444;52.114;5.424;2023-07-28T02:48:13;100571.03;;;17.41;100.00
81125;BME280;71444;52.114;5.424;2023-07-28T02:51:02;100581.97;;;17.41;99.88
81125;BME280;71444;52.114;5.424;2023-07-28T02:53:41;100584.47;;;17.43;100.00
81125;BME280;71444;52.114;5.424;2023-07-28T02:56:25;100580.06;;;17.42;99.89
81125;BME280;71444;52.114;5.424;2023-07-28T02:59:14;100584.25;;;17.44;99.85
81125;BME280;71444;52.114;5.424;2023-07-28T03:02:02;100590.78;;;17.43;99.83
81125;BME280;71444;52.114;5.424;2023-07-28T03:04:55;100589.72;;;17.44;100.00
81125;BME280;71444;52.114;5.424;2023-07-28T03:07:35;100583.41;;;17.44;99.81
81125;BME280;71444;52.114;5.424;2023-07-28T03:10:23;100583.19;;;17.45;99.82
81125;BME280;71444;52.114;5.424;2023-07-28T03:13:11;100593.06;;;17.46;100.00
81125;BME280;71444;52.114;5.424;2023-07-28T03:15:59;100593.06;;;17.46;100.00
81125;BME280;71444;52.114;5.424;2023-07-28T03:18:48;100601.03;;;17.48;100.00
81125;BME280;71444;52.114;5.424;2023-07-28T03:21:35;100602.94;;;17.47;100.00
81125;BME280;71444;52.114;5.424;2023-07-28T03:24:23;100593.69;;;17.48;99.94
81125;BME280;71444;52.114;5.424;2023-07-28T03:27:07;100611.94;;;17.48;100.00
81125;BME280;71444;52.114;5.424;2023-07-28T03:29:49;100607.34;;;17.48;100.00
81125;BME280;71444;52.114;5.424;2023-07-28T03:32:35;100602.72;;;17.49;100.00
81125;BME280;71444;52.114;5.424;2023-07-28T03:35:15;100611.72;;;17.49;99.91
81125;BME280;71444;52.114;5.424;2023-07-28T03:38:03;100609.00;;;17.49;100.00
81125;BME280;71444;52.114;5.424;2023-07-28T03:40:51;100613.44;;;17.51;100.00
81125;BME280;71444;52.114;5.424;2023-07-28T03:43:35;100616.16;;;17.51;100.00
81125;BME280;71444;52.114;5.424;2023-07-28T03:46:17;100610.91;;;17.49;100.00
81125;BME280;71444;52.114;5.424;2023-07-28T03:48:57;100615.31;;;17.50;100.00
81125;BME280;71444;52.114;5.424;2023-07-28T03:51:46;100616.56;;;17.47;99.85
81125;BME280;71444;52.114;5.424;2023-07-28T03:54:35;100617.00;;;17.51;100.00
81125;BME280;71444;52.114;5.424;2023-07-28T03:57:17;100607.97;;;17.51;99.87
81125;BME280;71444;52.114;5.424;2023-07-28T04:00:06;100616.16;;;17.51;99.86
81125;BME280;71444;52.114;5.424;2023-07-28T04:02:49;100618.91;;;17.51;100.00
81125;BME280;71444;52.114;5.424;2023-07-28T04:05:37;100613.22;;;17.52;99.91
81125;BME280;71444;52.114;5.424;2023-07-28T04:08:21;100624.13;;;17.52;100.00
81125;BME280;71444;52.114;5.424;2023-07-28T04:11:00;100622.25;;;17.53;100.00
81125;BME280;71444;52.114;5.424;2023-07-28T04:13:49;100618.69;;;17.52;99.81
81125;BME280;71444;52.114;5.424;2023-07-28T04:16:38;100624.97;;;17.53;99.93
81125;BME280;71444;52.114;5.424;2023-07-28T04:19:26;100627.50;;;17.54;100.00
81125;BME280;71444;52.114;5.424;2023-07-28T04:22:10;100619.28;;;17.54;99.84
81125;BME280;71444;52.114;5.424;2023-07-28T04:25:00;100625.38;;;17.56;100.00
81125;BME280;71444;52.114;5.424;2023-07-28T04:27:48;100624.31;;;17.57;99.99
81125;BME280;71444;52.114;5.424;2023-07-28T04:30:36;100626.00;;;17.58;100.00
81125;BME280;71444;52.114;5.424;2023-07-28T04:33:25;100625.16;;;17.58;99.94
81125;BME280;71444;52.114;5.424;2023-07-28T04:36:14;100629.56;;;17.59;100.00
81125;BME280;71444;52.114;5.424;2023-07-28T04:39:02;100640.28;;;17.60;100.00
81125;BME280;71444;52.114;5.424;2023-07-28T04:41:42;100635.66;;;17.61;100.00
81125;BME280;71444;52.114;5.424;2023-07-28T04:44:22;100633.13;;;17.59;99.86
81125;BME280;71444;52.114;5.424;2023-07-28T04:47:05;100640.28;;;17.60;100.00
81125;BME280;71444;52.114;5.424;2023-07-28T04:49:55;100635.44;;;17.62;100.00
81125;BME280;71444;52.114;5.424;2023-07-28T04:52:38;100632.72;;;17.62;99.86
81125;BME280;71444;52.114;5.424;2023-07-28T04:55:26;100646.16;;;17.64;99.88
81125;BME280;71444;52.114;5.424;2023-07-28T04:58:15;100645.31;;;17.63;99.51
81125;BME280;71444;52.114;5.424;2023-07-28T05:01:03;100642.59;;;17.63;99.69
81125;BME280;71444;52.114;5.424;2023-07-28T05:03:49;100650.78;;;17.63;99.82
81125;BME280;71444;52.114;5.424;2023-07-28T05:06:37;100647.00;;;17.64;99.37
81125;BME280;71444;52.114;5.424;2023-07-28T05:09:16;100647.59;;;17.66;99.66
81125;BME280;71444;52.114;5.424;2023-07-28T05:11:56;100646.31;;;17.69;99.59
81125;BME280;71444;52.114;5.424;2023-07-28T05:14:43;100646.19;;;17.70;99.54
81125;BME280;71444;52.114;5.424;2023-07-28T05:17:32;100648.69;;;17.72;99.89
81125;BME280;71444;52.114;5.424;2023-07-28T05:20:20;100650.34;;;17.73;99.52
81125;BME280;71444;52.114;5.424;2023-07-28T05:23:08;100648.03;;;17.76;99.43
81125;BME280;71444;52.114;5.424;2023-07-28T05:25:56;100651.19;;;17.80;99.43
81125;BME280;71444;52.114;5.424;2023-07-28T05:28:45;100645.50;;;17.82;99.53
81125;BME280;71444;52.114;5.424;2023-07-28T05:31:33;100636.03;;;17.84;99.40
81125;BME280;71444;52.114;5.424;2023-07-28T05:34:21;100637.69;;;17.85;99.19
81125;BME280;71444;52.114;5.424;2023-07-28T05:37:09;100638.31;;;17.87;99.29
81125;BME280;71444;52.114;5.424;2023-07-28T05:39:52;100639.59;;;17.85;99.02
81125;BME280;71444;52.114;5.424;2023-07-28T05:42:37;100640.66;;;17.84;98.78
81125;BME280;71444;52.114;5.424;2023-07-28T05:45:17;100647.16;;;17.83;99.06
81125;BME280;71444;52.114;5.424;2023-07-28T05:48:04;100654.47;;;17.89;98.95
81125;BME280;71444;52.114;5.424;2023-07-28T05:50:53;100654.69;;;17.94;98.84
81125;BME280;71444;52.114;5.424;2023-07-28T05:53:33;100667.69;;;17.98;98.72
81125;BME280;71444;52.114;5.424;2023-07-28T05:56:13;100672.50;;;18.03;99.03
81125;BME280;71444;52.114;5.424;2023-07-28T05:58:52;100668.72;;;18.04;98.48
81125;BME280;71444;52.114;5.424;2023-07-28T06:01:37;100666.81;;;18.04;98.65
81125;BME280;71444;52.114;5.424;2023-07-28T06:04:24;100665.53;;;18.07;98.64
81125;BME280;71444;52.114;5.424;2023-07-28T06:07:03;100669.13;;;18.08;98.52
81125;BME280;71444;52.114;5.424;2023-07-28T06:09:52;100674.34;;;18.09;97.92
81125;BME280;71444;52.114;5.424;2023-07-28T06:12:40;100672.06;;;18.13;98.20
81125;BME280;71444;52.114;5.424;2023-07-28T06:15:28;100672.22;;;18.18;98.15
81125;BME280;71444;52.114;5.424;2023-07-28T06:18:17;100673.47;;;18.22;97.96
81125;BME280;71444;52.114;5.424;2023-07-28T06:21:00;100679.09;;;18.33;97.84
81125;BME280;71444;52.114;5.424;2023-07-28T06:23:49;100668.50;;;18.44;97.59
81125;BME280;71444;52.114;5.424;2023-07-28T06:26:30;100682.31;;;18.55;97.22
81125;BME280;71444;52.114;5.424;2023-07-28T06:29:18;100687.34;;;18.65;96.10
81125;BME280;71444;52.114;5.424;2023-07-28T06:32:05;100687.34;;;18.65;96.03
81125;BME280;71444;52.114;5.424;2023-07-28T06:34:51;100695.72;;;18.63;95.02
81125;BME280;71444;52.114;5.424;2023-07-28T06:37:40;100689.88;;;18.60;95.36
81125;BME280;71444;52.114;5.424;2023-07-28T06:40:27;100694.47;;;18.66;96.31
81125;BME280;71444;52.114;5.424;2023-07-28T06:43:16;100696.97;;;18.68;95.88
81125;BME280;71444;52.114;5.424;2023-07-28T06:46:07;100708.56;;;18.63;95.11
81125;BME280;71444;52.114;5.424;2023-07-28T06:48:55;100711.31;;;18.63;95.73
81125;BME280;71444;52.114;5.424;2023-07-28T06:51:43;100720.16;;;18.65;95.77
81125;BME280;71444;52.114;5.424;2023-07-28T06:54:34;100715.72;;;18.64;94.88
81125;BME280;71444;52.114;5.424;2023-07-28T06:57:22;100717.63;;;18.63;94.65
81125;BME280;71444;52.114;5.424;2023-07-28T07:00:11;100718.69;;;18.62;94.89
81125;BME280;71444;52.114;5.424;2023-07-28T07:02:59;100729.19;;;18.66;94.65
81125;BME280;71444;52.114;5.424;2023-07-28T07:05:49;100733.19;;;18.63;94.11
81125;BME280;71444;52.114;5.424;2023-07-28T07:08:38;100723.91;;;18.64;94.41
81125;BME280;71444;52.114;5.424;2023-07-28T07:11:26;100732.34;;;18.69;94.84
81125;BME280;71444;52.114;5.424;2023-07-28T07:14:14;100733.56;;;18.73;94.62
81125;BME280;71444;52.114;5.424;2023-07-28T07:17:02;100732.75;;;18.73;94.85
81125;BME280;71444;52.114;5.424;2023-07-28T07:19:50;100735.47;;;18.73;95.14
81125;BME280;71444;52.114;5.424;2023-07-28T07:22:38;100733.97;;;18.77;94.81
81125;BME280;71444;52.114;5.424;2023-07-28T07:25:27;100739.66;;;18.75;94.21
81125;BME280;71444;52.114;5.424;2023-07-28T07:28:15;100736.94;;;18.75;94.24
81125;BME280;71444;52.114;5.424;2023-07-28T07:31:04;100742.19;;;18.77;94.79
81125;BME280;71444;52.114;5.424;2023-07-28T07:33:52;100744.88;;;18.83;93.78
81125;BME280;71444;52.114;5.424;2023-07-28T07:36:40;100746.78;;;18.83;93.86
81125;BME280;71444;52.114;5.424;2023-07-28T07:39:28;100752.63;;;18.86;93.47
81125;BME280;71444;52.114;5.424;2023-07-28T07:42:17;100756.41;;;18.92;92.59
81125;BME280;71444;52.114;5.424;2023-07-28T07:45:05;100764.50;;;19.05;92.70
81125;BME280;71444;52.114;5.424;2023-07-28T07:47:54;100769.50;;;19.15;92.01
81125;BME280;71444;52.114;5.424;2023-07-28T07:50:42;100767.16;;;19.18;92.08
81125;BME280;71444;52.114;5.424;2023-07-28T07:53:30;100771.75;;;19.25;91.70
81125;BME280;71444;52.114;5.424;2023-07-28T07:56:19;100773.56;;;19.37;91.55
81125;BME280;71444;52.114;5.424;2023-07-28T07:59:07;100780.19;;;19.48;90.14
81125;BME280;71444;52.114;5.424;2023-07-28T08:01:55;100779.28;;;19.54;89.42
81125;BME280;71444;52.114;5.424;2023-07-28T08:04:45;100779.28;;;19.61;88.71
81125;BME280;71444;52.114;5.424;2023-07-28T08:07:33;100775.00;;;19.65;88.72
81125;BME280;71444;52.114;5.424;2023-07-28T08:10:21;100774.94;;;19.71;88.73
81125;BME280;71444;52.114;5.424;2023-07-28T08:13:10;100776.72;;;19.84;87.68
81125;BME280;71444;52.114;5.424;2023-07-28T08:15:58;100789.91;;;19.94;87.01
81125;BME280;71444;52.114;5.424;2023-07-28T08:18:27;100786.56;;;20.10;86.37
81125;BME280;71444;52.114;5.424;2023-07-28T08:21:15;100789.69;;;20.32;86.12
81125;BME280;71444;52.114;5.424;2023-07-28T08:24:04;100789.38;;;20.58;85.71
81125;BME280;71444;52.114;5.424;2023-07-28T08:26:52;100783.44;;;20.61;84.13
81125;BME280;71444;52.114;5.424;2023-07-28T08:29:40;100779.66;;;20.74;83.97
81125;BME280;71444;52.114;5.424;2023-07-28T08:32:30;100787.13;;;20.85;83.69
81125;BME280;71444;52.114;5.424;2023-07-28T08:35:19;100790.00;;;20.90;83.31
81125;BME280;71444;52.114;5.424;2023-07-28T08:38:07;100789.31;;;20.95;83.40
81125;BME280;71444;52.114;5.424;2023-07-28T08:40:56;100799.03;;;20.79;82.54
81125;BME280;71444;52.114;5.424;2023-07-28T08:43:46;100803.59;;;20.85;83.16
81125;BME280;71444;52.114;5.424;2023-07-28T08:46:34;100800.19;;;21.02;82.94
81125;BME280;71444;52.114;5.424;2023-07-28T08:49:25;100797.34;;;21.08;82.10
81125;BME280;71444;52.114;5.424;2023-07-28T08:52:17;100798.81;;;21.23;81.42
81125;BME280;71444;52.114;5.424;2023-07-28T08:55:06;100797.84;;;21.17;81.77
81125;BME280;71444;52.114;5.424;2023-07-28T08:57:54;100803.59;;;21.15;81.80
81125;BME280;71444;52.114;5.424;2023-07-28T09:00:42;100810.22;;;21.26;82.52
81125;BME280;71444;52.114;5.424;2023-07-28T09:03:30;100811.88;;;21.27;80.62
81125;BME280;71444;52.114;5.424;2023-07-28T09:06:28;100803.69;;;21.20;81.05
81125;BME280;71444;52.114;5.424;2023-07-28T09:09:20;100798.50;;;21.31;79.98
81125;BME280;71444;52.114;5.424;2023-07-28T09:12:11;100807.50;;;21.50;79.90
81125;BME280;71444;52.114;5.424;2023-07-28T09:15:00;100811.31;;;21.48;79.73
81125;BME280;71444;52.114;5.424;2023-07-28T09:17:48;100805.47;;;21.57;79.07
81125;BME280;71444;52.114;5.424;2023-07-28T09:20:38;100802.16;;;21.66;78.33
81125;BME280;71444;52.114;5.424;2023-07-28T09:23:29;100804.44;;;21.93;77.53
81125;BME280;71444;52.114;5.424;2023-07-28T09:26:18;100805.50;;;22.15;76.71
81125;BME280;71444;52.114;5.424;2023-07-28T09:29:20;100814.09;;;22.30;75.88
81125;BME280;71444;52.114;5.424;2023-07-28T09:32:10;100812.84;;;22.50;74.88
81125;BME280;71444;52.114;5.424;2023-07-28T09:35:06;100805.03;;;22.58;75.69
81125;BME280;71444;52.114;5.424;2023-07-28T09:37:56;100806.44;;;22.73;73.21
81125;BME280;71444;52.114;5.424;2023-07-28T09:40:46;100806.44;;;22.73;72.83
81125;BME280;71444;52.114;5.424;2023-07-28T09:43:38;100815.72;;;22.55;73.46
81125;BME280;71444;52.114;5.424;2023-07-28T09:46:28;100820.81;;;22.75;72.95
81125;BME280;71444;52.114;5.424;2023-07-28T09:52:23;100818.34;;;23.18;71.58
81125;BME280;71444;52.114;5.424;2023-07-28T09:55:08;100822.59;;;23.71;69.70
81125;BME280;71444;52.114;5.424;2023-07-28T09:58:04;100814.75;;;23.63;68.32
81125;BME280;71444;52.114;5.424;2023-07-28T10:00:53;100810.06;;;23.64;70.03
81125;BME280;71444;52.114;5.424;2023-07-28T10:03:42;100815.50;;;23.75;68.70
81125;BME280;71444;52.114;5.424;2023-07-28T10:06:32;100815.59;;;23.81;69.68
81125;BME280;71444;52.114;5.424;2023-07-28T10:09:23;100815.31;;;23.82;68.71
81125;BME280;71444;52.114;5.424;2023-07-28T10:12:24;100811.88;;;23.58;68.42
81125;BME280;71444;52.114;5.424;2023-07-28T10:15:28;100814.16;;;23.78;68.40
81125;BME280;71444;52.114;5.424;2023-07-28T10:18:21;100811.91;;;23.75;67.44
81125;BME280;71444;52.114;5.424;2023-07-28T10:21:12;100816.91;;;23.78;66.05
81125;BME280;71444;52.114;5.424;2023-07-28T10:24:04;100813.41;;;24.21;65.22
81125;BME280;71444;52.114;5.424;2023-07-28T10:26:57;100820.50;;;24.34;64.21
81125;BME280;71444;52.114;5.424;2023-07-28T10:29:59;100813.47;;;24.26;64.29
81125;BME280;71444;52.114;5.424;2023-07-28T10:32:54;100811.53;;;24.27;63.69
81125;BME280;71444;52.114;5.424;2023-07-28T10:35:47;100811.66;;;24.54;63.01
81125;BME280;71444;52.114;5.424;2023-07-28T10:38:35;100809.69;;;24.98;63.64
81125;BME280;71444;52.114;5.424;2023-07-28T10:41:18;100808.03;;;25.24;61.70
81125;BME280;71444;52.114;5.424;2023-07-28T10:44:07;100812.97;;;25.49;61.65
81125;BME280;71444;52.114;5.424;2023-07-28T10:46:56;100805.94;;;25.68;60.40
81125;BME280;71444;52.114;5.424;2023-07-28T10:49:47;100807.38;;;25.12;60.88
81125;BME280;71444;52.114;5.424;2023-07-28T10:52:42;100818.59;;;24.56;63.65
81125;BME280;71444;52.114;5.424;2023-07-28T10:55:32;100817.56;;;24.02;66.57
81125;BME280;71444;52.114;5.424;2023-07-28T10:58:22;100818.41;;;24.24;66.35
81125;BME280;71444;52.114;5.424;2023-07-28T11:01:12;100823.09;;;24.24;66.34
81125;BME280;71444;52.114;5.424;2023-07-28T11:04:15;100821.88;;;24.15;66.61
81125;BME280;71444;52.114;5.424;2023-07-28T11:07:06;100829.34;;;23.97;67.68
81125;BME280;71444;52.114;5.424;2023-07-28T11:09:55;100829.69;;;23.84;66.67
81125;BME280;71444;52.114;5.424;2023-07-28T11:12:46;100823.94;;;23.69;68.47
81125;BME280;71444;52.114;5.424;2023-07-28T11:15:37;100827.75;;;23.51;68.40
81125;BME280;71444;52.114;5.424;2023-07-28T11:18:26;100829.56;;;23.29;69.87
81125;BME280;71444;52.114;5.424;2023-07-28T11:21:17;100832.97;;;23.19;70.67
81125;BME280;71444;52.114;5.424;2023-07-28T11:24:10;100841.00;;;23.21;70.74
81125;BME280;71444;52.114;5.424;2023-07-28T11:26:59;100837.53;;;23.42;70.44
81125;BME280;71444;52.114;5.424;2023-07-28T11:29:50;100840.69;;;23.34;70.91
81125;BME280;71444;52.114;5.424;2023-07-28T11:32:38;100838.19;;;23.49;70.75
81125;BME280;71444;52.114;5.424;2023-07-28T11:35:26;100840.19;;;23.54;71.49
81125;BME280;71444;52.114;5.424;2023-07-28T11:38:15;100846.28;;;23.10;71.83
81125;BME280;71444;52.114;5.424;2023-07-28T11:41:05;100841.59;;;22.94;72.68
81125;BME280;71444;52.114;5.424;2023-07-28T11:43:54;100840.56;;;23.12;72.63
81125;BME280;71444;52.114;5.424;2023-07-28T11:46:43;100832.63;;;23.15;70.40
81125;BME280;71444;52.114;5.424;2023-07-28T11:49:31;100835.97;;;23.17;70.83
81125;BME280;71444;52.114;5.424;2023-07-28T11:52:19;100835.09;;;23.45;70.61
81125;BME280;71444;52.114;5.424;2023-07-28T11:55:08;100829.75;;;23.56;69.07
81125;BME280;71444;52.114;5.424;2023-07-28T11:57:56;100839.47;;;23.75;68.56
81125;BME280;71444;52.114;5.424;2023-07-28T12:00:45;100840.72;;;24.01;67.57
81125;BME280;71444;52.114;5.424;2023-07-28T12:03:39;100837.53;;;24.48;64.79
81125;BME280;71444;52.114;5.424;2023-07-28T12:06:27;100836.06;;;24.84;66.38
81125;BME280;71444;52.114;5.424;2023-07-28T12:09:15;100828.84;;;25.32;63.74
81125;BME280;71444;52.114;5.424;2023-07-28T12:12:03;100840.91;;;25.21;61.17
81125;BME280;71444;52.114;5.424;2023-07-28T12:14:52;100845.28;;;25.16;61.25
81125;BME280;71444;52.114;5.424;2023-07-28T12:18:09;100845.38;;;25.54;62.04
81125;BME280;71444;52.114;5.424;2023-07-28T12:20:59;100836.56;;;25.89;60.97
81125;BME280;71444;52.114;5.424;2023-07-28T12:23:47;100837.00;;;25.76;60.26
81125;BME280;71444;52.114;5.424;2023-07-28T12:26:35;100841.59;;;25.65;61.29
81125;BME280;71444;52.114;5.424;2023-07-28T12:29:27;100843.97;;;25.83;60.87
81125;BME280;71444;52.114;5.424;2023-07-28T12:32:19;100839.88;;;25.59;59.15
81125;BME280;71444;52.114;5.424;2023-07-28T12:35:07;100838.69;;;25.50;59.00
81125;BME280;71444;52.114;5.424;2023-07-28T12:37:57;100839.41;;;26.04;55.15
81125;BME280;71444;52.114;5.424;2023-07-28T12:40:46;100838.13;;;26.69;55.61
81125;BME280;71444;52.114;5.424;2023-07-28T12:43:34;100831.13;;;27.39;52.98
81125;BME280;71444;52.114;5.424;2023-07-28T12:46:24;100831.44;;;27.79;53.22
81125;BME280;71444;52.114;5.424;2023-07-28T12:49:13;100829.19;;;28.01;50.86
81125;BME280;71444;52.114;5.424;2023-07-28T12:52:04;100826.16;;;27.97;50.36
81125;BME280;71444;52.114;5.424;2023-07-28T12:54:49;100826.75;;;27.74;48.81
81125;BME280;71444;52.114;5.424;2023-07-28T12:57:37;100833.63;;;27.41;51.11
81125;BME280;71444;52.114;5.424;2023-07-28T13:00:25;100834.78;;;27.70;51.21
81125;BME280;71444;52.114;5.424;2023-07-28T13:03:16;100831.69;;;28.13;47.69
81125;BME280;71444;52.114;5.424;2023-07-28T13:06:04;100829.50;;;27.94;49.22
81125;BME280;71444;52.114;5.424;2023-07-28T13:08:52;100839.16;;;28.33;49.07
81125;BME280;71444;52.114;5.424;2023-07-28T13:11:40;100832.94;;;29.16;48.55
81125;BME280;71444;52.114;5.424;2023-07-28T13:14:29;100815.88;;;29.66;46.10
81125;BME280;71444;52.114;5.424;2023-07-28T13:17:17;100831.88;;;29.11;46.71
81125;BME280;71444;52.114;5.424;2023-07-28T13:20:07;100832.13;;;28.55;47.32
81125;BME280;71444;52.114;5.424;2023-07-28T13:22:36;100839.41;;;28.31;48.81
81125;BME280;71444;52.114;5.424;2023-07-28T13:25:24;100835.53;;;28.17;49.76
81125;BME280;71444;52.114;5.424;2023-07-28T13:28:12;100843.59;;;28.23;49.75
81125;BME280;71444;52.114;5.424;2023-07-28T13:31:02;100834.75;;;27.96;50.16
81125;BME280;71444;52.114;5.424;2023-07-28T13:33:31;100840.63;;;27.74;50.28
81125;BME280;71444;52.114;5.424;2023-07-28T13:36:22;100830.88;;;27.71;51.05
81125;BME280;71444;52.114;5.424;2023-07-28T13:39:11;100838.06;;;28.08;50.77
81125;BME280;71444;52.114;5.424;2023-07-28T13:41:59;100837.47;;;28.42;49.03
81125;BME280;71444;52.114;5.424;2023-07-28T13:44:47;100836.34;;;28.27;48.31
81125;BME280;71444;52.114;5.424;2023-07-28T13:47:37;100835.88;;;27.69;49.68
81125;BME280;71444;52.114;5.424;2023-07-28T13:50:16;100837.25;;;27.47;50.89
81125;BME280;71444;52.114;5.424;2023-07-28T13:52:56;100828.66;;;27.63;50.47
81125;BME280;71444;52.114;5.424;2023-07-28T13:55:37;100832.81;;;27.86;50.82
81125;BME280;71444;52.114;5.424;2023-07-28T13:58:28;100828.22;;;28.62;48.15
81125;BME280;71444;52.114;5.424;2023-07-28T14:01:16;100828.38;;;28.80;48.24
81125;BME280;71444;52.114;5.424;2023-07-28T14:03:58;100818.22;;;29.15;46.80
81125;BME280;71444;52.114;5.424;2023-07-28T14:06:47;100815.47;;;29.83;46.31
81125;BME280;71444;52.114;5.424;2023-07-28T14:09:27;100810.00;;;29.97;44.78
81125;BME280;71444;52.114;5.424;2023-07-28T14:12:07;100809.91;;;29.78;45.16
81125;BME280;71444;52.114;5.424;2023-07-28T14:14:47;100813.81;;;30.06;44.30
81125;BME280;71444;52.114;5.424;2023-07-28T14:17:38;100803.00;;;30.52;42.66
81125;BME280;71444;52.114;5.424;2023-07-28T14:20:26;100809.13;;;30.78;42.25
81125;BME280;71444;52.114;5.424;2023-07-28T14:23:25;100813.34;;;30.52;43.14
81125;BME280;71444;52.114;5.424;2023-07-28T14:26:14;100814.00;;;30.44;42.28
81125;BME280;71444;52.114;5.424;2023-07-28T14:29:02;100819.69;;;30.34;43.19
81125;BME280;71444;52.114;5.424;2023-07-28T14:31:51;100812.25;;;30.48;43.54
81125;BME280;71444;52.114;5.424;2023-07-28T14:34:41;100810.53;;;30.76;42.50
81125;BME280;71444;52.114;5.424;2023-07-28T14:37:30;100810.13;;;31.25;41.66
81125;BME280;71444;52.114;5.424;2023-07-28T14:40:18;100814.94;;;31.38;41.19